Time;durP1;ratioP1;P1;durP2;ratioP2;P2;SDS_P1;SDS_P2;PMS_P1;PMS_P2;Temp;Humidity;BMP_temperature;BMP_pressure;BME280_temperature;BME280_humidity;BME280_pressure;Samples;Min_cycle;Max_cycle;Signal;HPM_P1;HPM_P2
2024/03/15 00:01:38;;;;;;;17.42;10.68;;;;;;;;;;5031692;28;20077;-64
2024/03/15 00:04:04;;;;;;;19.88;11.07;;;;;;;;;;5030794;28;20040;-64
2024/03/15 00:06:30;;;;;;;18.92;10.55;;;;;;;;;;5030338;28;20128;-65
2024/03/15 00:08:56;;;;;;;18.55;10.68;;;;;;;;;;5032203;28;20038;-63
2024/03/15 00:11:22;;;;;;;18.38;10.65;;;;;;;;;;5031569;28;20038;-63
2024/03/15 00:13:48;;;;;;;19.67;11.10;;;;;;;;;;5032045;28;20060;-63
2024/03/15 00:16:14;;;;;;;18.20;11.15;;;;;;;;;;5031800;28;20076;-63
2024/03/15 00:18:40;;;;;;;18.67;9.82;;;;;;;;;;5010890;28;20080;-64
2024/03/15 00:21:05;;;;;;;19.20;11.15;;;;;;;;;;5011926;28;20030;-64
2024/03/15 00:23:31;;;;;;;18.20;10.43;;;;;;;;;;5029098;28;20044;-63
2024/03/15 00:25:58;;;;;;;19.65;11.30;;;;;;;;;;5031643;28;20033;-64
2024/03/15 00:28:23;;;;;;;18.15;10.45;;;;;;;;;;5031544;28;20037;-64
2024/03/15 00:30:51;;;;;;;21.00;11.48;;;;;;;;;;5031516;28;20029;-63
2024/03/15 00:33:17;;;;;;;19.13;11.35;;;;;;;;;;5031419;28;20467;-63
2024/03/15 00:35:43;;;;;;;16.80;10.75;;;;;;;;;;5030174;28;20047;-64
2024/03/15 00:38:09;;;;;;;19.05;10.65;;;;;;;;;;5029718;28;20034;-64
2024/03/15 00:40:34;;;;;;;17.15;10.68;;;;;;;;;;5031220;28;20405;-63
2024/03/15 00:43:00;;;;;;;18.50;10.65;;;;;;;;;;5030178;28;20502;-62
2024/03/15 00:45:26;;;;;;;18.80;12.07;;;;;;;;;;5031731;28;20040;-65
2024/03/15 00:47:52;;;;;;;19.40;11.43;;;;;;;;;;5029886;28;20033;-64
2024/03/15 00:50:18;;;;;;;17.92;10.82;;;;;;;;;;5029892;28;20100;-64
2024/03/15 00:52:44;;;;;;;23.42;12.30;;;;;;;;;;5031392;28;20025;-63
2024/03/15 00:55:10;;;;;;;18.63;10.68;;;;;;;;;;5031734;28;20120;-64
2024/03/15 00:57:36;;;;;;;19.92;10.68;;;;;;;;;;5031245;28;20103;-64
2024/03/15 01:00:03;;;;;;;18.95;11.25;;;;;;;;;;5030218;28;20488;-63
2024/03/15 01:02:30;;;;;;;23.50;11.40;;;;;;;;;;5012371;28;20072;-65
2024/03/15 01:04:56;;;;;;;17.73;10.88;;;;;;;;;;5030846;28;20072;-64
2024/03/15 01:07:22;;;;;;;18.23;11.20;;;;;;;;;;5031307;28;20033;-64
2024/03/15 01:09:48;;;;;;;19.63;11.57;;;;;;;;;;5031270;28;20053;-63
2024/03/15 01:12:14;;;;;;;21.38;11.93;;;;;;;;;;5031038;28;20041;-66
2024/03/15 01:14:40;;;;;;;19.52;11.50;;;;;;;;;;5031148;28;20099;-64
2024/03/15 01:17:07;;;;;;;17.95;10.85;;;;;;;;;;5013399;28;20491;-63
2024/03/15 01:19:33;;;;;;;19.35;12.13;;;;;;;;;;5031057;28;20049;-62
2024/03/15 01:22:00;;;;;;;20.88;11.63;;;;;;;;;;5029757;28;20045;-63
2024/03/15 01:24:26;;;;;;;20.08;11.95;;;;;;;;;;5030901;28;20390;-64
2024/03/15 01:26:52;;;;;;;18.67;10.85;;;;;;;;;;5030126;28;20091;-65
2024/03/15 01:29:17;;;;;;;21.92;11.98;;;;;;;;;;5013070;28;20041;-64
2024/03/15 01:31:43;;;;;;;22.67;12.05;;;;;;;;;;5029741;28;20466;-65
2024/03/15 01:34:09;;;;;;;21.15;12.23;;;;;;;;;;5030877;28;20037;-64
2024/03/15 01:36:35;;;;;;;19.15;11.13;;;;;;;;;;5030769;28;20033;-63
2024/03/15 01:39:00;;;;;;;26.17;13.25;;;;;;;;;;5030998;28;20112;-64
2024/03/15 01:41:26;;;;;;;21.58;12.85;;;;;;;;;;5030748;28;20053;-62
2024/03/15 01:43:51;;;;;;;24.60;12.70;;;;;;;;;;5030876;28;20041;-63
2024/03/15 01:46:17;;;;;;;20.02;12.07;;;;;;;;;;5030570;28;20047;-65
2024/03/15 01:48:44;;;;;;;19.83;12.00;;;;;;;;;;5031976;28;20038;-62
2024/03/15 01:51:12;;;;;;;19.85;11.80;;;;;;;;;;5034532;28;20033;-65
2024/03/15 01:53:39;;;;;;;20.48;11.10;;;;;;;;;;5034592;28;20045;-63
2024/03/15 01:56:05;;;;;;;20.30;12.43;;;;;;;;;;5032983;28;20109;-62
2024/03/15 01:58:31;;;;;;;18.63;11.55;;;;;;;;;;5034286;28;20079;-62
2024/03/15 02:00:56;;;;;;;23.67;12.70;;;;;;;;;;5016702;28;20041;-62
2024/03/15 02:03:23;;;;;;;21.40;12.55;;;;;;;;;;5032868;28;20029;-62
2024/03/15 02:05:49;;;;;;;21.85;11.98;;;;;;;;;;5034555;28;20030;-65
2024/03/15 02:08:19;;;;;;;23.27;12.18;;;;;;;;;;5034328;28;20037;-63
2024/03/15 02:10:45;;;;;;;20.98;12.45;;;;;;;;;;5034129;28;20037;-64
2024/03/15 02:13:10;;;;;;;20.42;11.38;;;;;;;;;;5034138;28;20108;-63
2024/03/15 02:15:36;;;;;;;21.95;12.27;;;;;;;;;;5032435;28;20037;-64
2024/03/15 02:18:21;;;;;;;22.85;13.00;;;;;;;;;;5033067;28;20115;-64
2024/03/15 02:20:47;;;;;;;24.05;13.13;;;;;;;;;;5032815;28;20487;-65
2024/03/15 02:23:15;;;;;;;20.95;11.82;;;;;;;;;;5033989;28;20049;-64
2024/03/15 02:25:41;;;;;;;22.85;12.48;;;;;;;;;;5033703;28;20041;-64
2024/03/15 02:28:08;;;;;;;23.80;13.00;;;;;;;;;;5033699;28;20037;-64
2024/03/15 02:30:34;;;;;;;20.42;11.90;;;;;;;;;;5032430;28;20507;-64
2024/03/15 02:33:00;;;;;;;22.98;12.35;;;;;;;;;;5033472;28;20119;-63
2024/03/15 02:35:26;;;;;;;21.92;13.25;;;;;;;;;;5034175;28;20491;-65
2024/03/15 02:37:53;;;;;;;24.02;13.15;;;;;;;;;;5032138;28;20160;-64
2024/03/15 02:40:19;;;;;;;22.77;12.45;;;;;;;;;;5032490;28;20034;-64
2024/03/15 02:42:46;;;;;;;21.00;12.13;;;;;;;;;;5033618;28;20548;-64
2024/03/15 02:45:11;;;;;;;22.98;12.63;;;;;;;;;;5033980;28;20119;-64
2024/03/15 02:47:38;;;;;;;23.35;12.50;;;;;;;;;;5033197;28;20060;-63
2024/03/15 02:50:05;;;;;;;23.33;12.60;;;;;;;;;;5033848;28;20042;-64
2024/03/15 02:52:31;;;;;;;22.80;12.77;;;;;;;;;;5033339;28;20060;-63
2024/03/15 02:54:57;;;;;;;24.45;13.45;;;;;;;;;;5033597;28;20103;-62
2024/03/15 02:57:23;;;;;;;23.20;13.63;;;;;;;;;;5031588;28;20064;-65
2024/03/15 02:59:48;;;;;;;22.55;13.07;;;;;;;;;;5032906;28;20045;-64
2024/03/15 03:02:14;;;;;;;24.98;13.02;;;;;;;;;;5033153;28;20169;-63
2024/03/15 03:04:43;;;;;;;22.05;13.18;;;;;;;;;;5031797;28;20447;-63
2024/03/15 03:07:08;;;;;;;24.80;13.00;;;;;;;;;;5032840;28;20069;-64
2024/03/15 03:09:34;;;;;;;28.67;14.00;;;;;;;;;;5033243;28;20061;-62
2024/03/15 03:11:59;;;;;;;23.77;13.57;;;;;;;;;;5015198;28;20048;-62
2024/03/15 03:14:26;;;;;;;23.80;13.35;;;;;;;;;;5032967;28;20046;-64
2024/03/15 03:16:51;;;;;;;24.75;12.93;;;;;;;;;;5031727;28;20506;-64
2024/03/15 03:19:17;;;;;;;23.35;13.00;;;;;;;;;;5032853;28;20120;-63
2024/03/15 03:21:45;;;;;;;26.65;13.45;;;;;;;;;;5033016;28;20535;-65
2024/03/15 03:24:11;;;;;;;22.38;12.50;;;;;;;;;;5032757;28;20036;-64
2024/03/15 03:26:37;;;;;;;22.92;13.45;;;;;;;;;;5031481;28;20408;-65
2024/03/15 03:29:02;;;;;;;21.75;12.10;;;;;;;;;;5030267;28;20045;-64
2024/03/15 03:31:28;;;;;;;22.35;12.93;;;;;;;;;;5032724;28;20053;-64
2024/03/15 03:33:54;;;;;;;23.83;13.20;;;;;;;;;;5032406;28;20474;-63
2024/03/15 03:36:19;;;;;;;25.00;13.32;;;;;;;;;;5032803;28;20068;-65
2024/03/15 03:38:45;;;;;;;28.17;13.82;;;;;;;;;;5032436;28;20045;-63
2024/03/15 03:41:10;;;;;;;25.00;14.77;;;;;;;;;;5031005;28;20062;-64
2024/03/15 03:43:37;;;;;;;24.83;12.98;;;;;;;;;;5030990;28;20040;-64
2024/03/15 03:46:06;;;;;;;28.95;13.98;;;;;;;;;;5031050;28;20470;-64
2024/03/15 03:48:32;;;;;;;22.17;13.15;;;;;;;;;;5032276;28;20087;-64
2024/03/15 03:51:01;;;;;;;25.90;13.95;;;;;;;;;;5031319;28;20112;-66
2024/03/15 03:53:27;;;;;;;24.33;13.93;;;;;;;;;;5030926;28;20037;-65
2024/03/15 03:55:53;;;;;;;24.52;13.82;;;;;;;;;;5031937;28;20033;-65
2024/03/15 03:58:23;;;;;;;27.58;13.40;;;;;;;;;;5031018;28;20124;-65
2024/03/15 04:00:49;;;;;;;24.27;13.60;;;;;;;;;;5014412;28;20492;-64
2024/03/15 04:03:15;;;;;;;23.20;13.50;;;;;;;;;;5032054;28;20060;-64
2024/03/15 04:05:42;;;;;;;24.33;13.18;;;;;;;;;;5031813;28;20044;-65
2024/03/15 04:08:08;;;;;;;22.60;13.32;;;;;;;;;;5030349;28;20084;-64
2024/03/15 04:10:36;;;;;;;26.92;13.50;;;;;;;;;;5031465;28;20037;-63
2024/03/15 04:13:02;;;;;;;26.80;12.93;;;;;;;;;;5013673;28;20411;-65
2024/03/15 04:15:27;;;;;;;23.55;13.40;;;;;;;;;;5030447;28;20116;-66
2024/03/15 04:17:53;;;;;;;23.75;13.63;;;;;;;;;;5014029;28;20044;-65
2024/03/15 04:20:22;;;;;;;24.13;13.77;;;;;;;;;;5030443;28;20411;-65
2024/03/15 04:22:48;;;;;;;21.13;12.40;;;;;;;;;;5031869;28;20072;-64
2024/03/15 04:25:19;;;;;;;26.05;14.25;;;;;;;;;;5031974;28;20041;-65
2024/03/15 04:27:46;;;;;;;;;;;;;;;;;;5032287;28;20068;-65
2024/03/15 04:30:15;;;;;;;21.05;12.23;;;;;;;;;;5031851;28;20433;-63
2024/03/15 04:32:43;;;;;;;27.10;13.65;;;;;;;;;;5014128;28;20068;-65
2024/03/15 04:35:09;;;;;;;26.42;14.43;;;;;;;;;;5029924;28;20037;-62
2024/03/15 04:37:34;;;;;;;20.85;12.82;;;;;;;;;;5030611;28;20036;-63
2024/03/15 04:40:00;;;;;;;22.00;13.00;;;;;;;;;;5029846;28;20292;-62
2024/03/15 04:42:31;;;;;;;26.00;13.70;;;;;;;;;;5027569;28;20519;-63
2024/03/15 04:44:56;;;;;;;;;;;;;;;;;;5029866;28;20037;-62
2024/03/15 04:47:22;;;;;;;26.00;13.25;;;;;;;;;;5027545;28;19913;-63
2024/03/15 04:49:48;;;;;;;26.58;13.80;;;;;;;;;;5027824;28;20132;-63
2024/03/15 04:52:14;;;;;;;23.95;13.20;;;;;;;;;;5029589;28;20037;-63
2024/03/15 04:54:40;;;;;;;27.65;14.20;;;;;;;;;;5031156;28;20037;-63
2024/03/15 04:57:05;;;;;;;23.75;14.38;;;;;;;;;;5030032;28;20033;-64
2024/03/15 04:59:31;;;;;;;26.27;14.02;;;;;;;;;;5031410;28;20048;-64
2024/03/15 05:01:56;;;;;;;24.13;12.88;;;;;;;;;;5031288;28;20534;-62
2024/03/15 05:04:22;;;;;;;29.13;14.52;;;;;;;;;;5031416;28;20069;-64
2024/03/15 05:06:47;;;;;;;29.88;14.48;;;;;;;;;;5029739;28;20335;-63
2024/03/15 05:09:14;;;;;;;27.23;16.08;;;;;;;;;;5031409;28;20037;-63
2024/03/15 05:11:40;;;;;;;25.75;14.18;;;;;;;;;;5029503;28;20407;-64
2024/03/15 05:14:08;;;;;;;23.80;13.95;;;;;;;;;;5031065;28;20038;-63
2024/03/15 05:16:34;;;;;;;24.88;14.50;;;;;;;;;;5031131;28;20041;-65
2024/03/15 05:19:01;;;;;;;29.20;14.63;;;;;;;;;;5013635;28;20037;-63
2024/03/15 05:21:27;;;;;;;23.17;13.57;;;;;;;;;;5030685;28;20049;-64
2024/03/15 05:23:53;;;;;;;24.58;14.70;;;;;;;;;;5033545;28;20033;-63
2024/03/15 05:26:20;;;;;;;21.73;13.23;;;;;;;;;;5033540;28;20079;-64
2024/03/15 05:28:45;;;;;;;22.20;13.20;;;;;;;;;;5034594;28;20041;-64
2024/03/15 05:31:22;;;;;;;24.00;13.32;;;;;;;;;;5034946;28;20037;-64
2024/03/15 05:33:47;;;;;;;21.67;13.98;;;;;;;;;;5033082;28;20036;-63
2024/03/15 05:36:13;;;;;;;27.45;14.93;;;;;;;;;;5034882;28;20041;-63
2024/03/15 05:38:39;;;;;;;24.25;14.85;;;;;;;;;;5034655;28;20128;-65
2024/03/15 05:41:05;;;;;;;22.40;13.57;;;;;;;;;;5032876;28;20553;-63
2024/03/15 05:43:31;;;;;;;21.75;14.20;;;;;;;;;;5034398;28;20038;-62
2024/03/15 05:45:56;;;;;;;27.65;13.82;;;;;;;;;;5034819;28;20040;-64
2024/03/15 05:48:22;;;;;;;22.25;13.98;;;;;;;;;;5034061;28;20083;-62
2024/03/15 05:50:47;;;;;;;27.17;14.85;;;;;;;;;;5034661;28;20061;-68
2024/03/15 05:53:13;;;;;;;30.88;14.80;;;;;;;;;;5032703;28;20029;-62
2024/03/15 05:55:39;;;;;;;27.90;15.20;;;;;;;;;;5034876;28;20540;-65
2024/03/15 05:58:04;;;;;;;24.27;14.52;;;;;;;;;;5033942;28;20462;-64
2024/03/15 06:00:30;;;;;;;28.83;14.48;;;;;;;;;;5034209;28;20404;-63
2024/03/15 06:02:55;;;;;;;25.48;14.40;;;;;;;;;;5032271;28;20131;-61
2024/03/15 06:05:22;;;;;;;23.85;14.80;;;;;;;;;;5031601;28;20036;-62
2024/03/15 06:07:47;;;;;;;25.85;15.25;;;;;;;;;;5033294;28;20033;-63
2024/03/15 06:10:14;;;;;;;24.95;13.57;;;;;;;;;;5033874;28;20033;-62
2024/03/15 06:12:39;;;;;;;23.20;14.57;;;;;;;;;;5030780;28;20036;-62
2024/03/15 06:15:07;;;;;;;27.88;15.60;;;;;;;;;;5061631;28;20045;-63
2024/03/15 06:17:33;;;;;;;23.45;14.90;;;;;;;;;;5032393;28;20040;-62
2024/03/15 06:19:59;;;;;;;27.42;14.55;;;;;;;;;;5031053;28;20136;-63
2024/03/15 06:22:25;;;;;;;27.30;15.45;;;;;;;;;;5032921;28;20076;-63
2024/03/15 06:24:52;;;;;;;26.75;15.20;;;;;;;;;;5031641;28;20041;-63
2024/03/15 06:27:20;;;;;;;25.17;14.80;;;;;;;;;;5033448;28;20043;-64
2024/03/15 06:29:55;;;;;;;24.60;15.05;;;;;;;;;;5031443;28;20128;-62
2024/03/15 06:32:26;;;;;;;23.58;14.70;;;;;;;;;;5032315;28;20447;-63
2024/03/15 06:34:57;;;;;;;28.67;15.43;;;;;;;;;;5031718;28;20038;-62
2024/03/15 06:37:23;;;;;;;24.95;15.07;;;;;;;;;;5032973;28;20025;-62
2024/03/15 06:42:23;;;;;;;23.67;14.15;;;;;;;;;;5031993;28;20504;-63
2024/03/15 06:45:11;;;;;;;26.05;14.57;;;;;;;;;;5030831;28;20045;-64
2024/03/15 06:47:40;;;;;;;24.90;15.07;;;;;;;;;;5031502;28;20064;-63
2024/03/15 06:50:30;;;;;;;24.88;15.23;;;;;;;;;;5032623;28;20025;-64
2024/03/15 06:52:54;;;;;;;24.85;14.32;;;;;;;;;;5032291;28;20037;-63
2024/03/15 06:55:20;;;;;;;29.10;14.85;;;;;;;;;;5033391;28;20041;-65
2024/03/15 06:57:48;;;;;;;27.45;15.10;;;;;;;;;;5032267;28;20041;-65
2024/03/15 07:00:14;;;;;;;25.05;15.15;;;;;;;;;;5032579;28;20037;-64
2024/03/15 07:02:43;;;;;;;24.67;14.75;;;;;;;;;;5031246;28;20128;-64
2024/03/15 07:05:13;;;;;;;25.75;14.55;;;;;;;;;;5031093;28;20033;-64
2024/03/15 07:07:40;;;;;;;28.42;14.30;;;;;;;;;;5032663;28;20037;-64
2024/03/15 07:10:10;;;;;;;25.15;15.30;;;;;;;;;;5032723;28;20442;-65
2024/03/15 07:12:38;;;;;;;28.33;14.73;;;;;;;;;;5015319;28;20038;-64
2024/03/15 07:15:05;;;;;;;24.55;14.75;;;;;;;;;;5031221;28;20494;-62
2024/03/15 07:17:33;;;;;;;24.27;15.23;;;;;;;;;;5032958;28;20045;-64
2024/03/15 07:20:00;;;;;;;23.90;13.77;;;;;;;;;;5030886;28;20486;-63
2024/03/15 07:22:27;;;;;;;24.58;14.70;;;;;;;;;;5012582;28;20499;-64
2024/03/15 07:24:54;;;;;;;28.10;14.95;;;;;;;;;;5014282;28;20045;-66
2024/03/15 07:27:20;;;;;;;23.58;13.52;;;;;;;;;;5030850;28;20525;-65
2024/03/15 07:29:46;;;;;;;26.63;15.45;;;;;;;;;;5029977;28;20066;-66
2024/03/15 07:32:11;;;;;;;27.42;15.02;;;;;;;;;;5032044;28;20111;-65
2024/03/15 07:34:39;;;;;;;22.08;13.77;;;;;;;;;;5031997;28;20498;-62
2024/03/15 07:37:05;;;;;;;25.38;14.93;;;;;;;;;;5030646;28;20120;-62
2024/03/15 07:39:32;;;;;;;22.88;14.68;;;;;;;;;;5030147;28;20132;-64
2024/03/15 07:41:59;;;;;;;25.10;14.43;;;;;;;;;;5031421;28;20057;-63
2024/03/15 07:44:26;;;;;;;21.73;14.43;;;;;;;;;;5031901;28;20045;-63
2024/03/15 07:46:51;;;;;;;27.90;14.85;;;;;;;;;;5030226;28;20371;-65
2024/03/15 07:49:18;;;;;;;24.77;14.07;;;;;;;;;;5030233;28;20041;-62
2024/03/15 07:51:46;;;;;;;23.67;15.15;;;;;;;;;;5030281;28;20584;-64
2024/03/15 07:54:11;;;;;;;26.35;14.57;;;;;;;;;;5031707;28;20043;-63
2024/03/15 07:56:37;;;;;;;24.08;14.52;;;;;;;;;;5031290;28;20021;-63
2024/03/15 07:59:03;;;;;;;21.13;13.80;;;;;;;;;;5030186;28;20042;-63
2024/03/15 08:01:31;;;;;;;22.92;14.60;;;;;;;;;;5031286;28;20049;-64
2024/03/15 08:03:57;;;;;;;26.27;14.73;;;;;;;;;;5031014;28;20037;-64
2024/03/15 08:06:22;;;;;;;22.70;14.35;;;;;;;;;;5031237;28;20048;-66
2024/03/15 08:08:48;;;;;;;27.45;14.88;;;;;;;;;;5029420;28;20041;-64
2024/03/15 08:11:14;;;;;;;24.08;14.15;;;;;;;;;;5030240;28;20120;-63
2024/03/15 08:13:40;;;;;;;23.50;14.07;;;;;;;;;;5029599;28;20037;-63
2024/03/15 08:16:18;;;;;;;23.15;13.50;;;;;;;;;;5031925;28;20061;-64
2024/03/15 08:18:48;;;;;;;24.15;13.73;;;;;;;;;;5029629;28;20580;-59
2024/03/15 08:21:15;;;;;;;27.67;14.02;;;;;;;;;;5029852;28;20041;-68
2024/03/15 08:23:44;;;;;;;25.45;14.23;;;;;;;;;;5030564;28;20565;-65
2024/03/15 08:26:14;;;;;;;21.85;14.05;;;;;;;;;;5031370;28;20553;-65
2024/03/15 08:28:40;;;;;;;24.58;14.15;;;;;;;;;;5029606;28;20080;-64
2024/03/15 08:31:06;;;;;;;23.33;13.43;;;;;;;;;;5031301;28;20541;-63
2024/03/15 08:33:31;;;;;;;20.98;13.20;;;;;;;;;;5029142;28;20095;-64
2024/03/15 08:35:57;;;;;;;21.63;13.15;;;;;;;;;;5030962;28;20029;-64
2024/03/15 08:38:23;;;;;;;22.13;13.15;;;;;;;;;;5030752;28;20499;-62
2024/03/15 08:40:49;;;;;;;24.55;13.65;;;;;;;;;;5013115;28;20509;-63
2024/03/15 08:43:15;;;;;;;22.02;13.77;;;;;;;;;;5030364;28;20041;-63
2024/03/15 08:45:40;;;;;;;20.65;12.68;;;;;;;;;;5030417;28;20499;-64
2024/03/15 08:48:07;;;;;;;23.35;13.38;;;;;;;;;;5030382;28;20064;-63
2024/03/15 08:50:32;;;;;;;22.00;13.55;;;;;;;;;;5028571;28;20033;-63
2024/03/15 08:52:59;;;;;;;23.27;14.00;;;;;;;;;;5011720;28;20284;-64
2024/03/15 08:55:25;;;;;;;21.38;13.32;;;;;;;;;;5030336;28;20527;-62
2024/03/15 08:57:51;;;;;;;22.00;14.00;;;;;;;;;;5028617;28;20147;-62
2024/03/15 09:00:17;;;;;;;23.58;13.75;;;;;;;;;;5029955;28;20033;-63
2024/03/15 09:02:43;;;;;;;23.95;12.70;;;;;;;;;;5031115;28;20184;-63
2024/03/15 09:05:10;;;;;;;21.77;13.38;;;;;;;;;;4992947;28;20041;-63
2024/03/15 09:07:36;;;;;;;23.75;13.02;;;;;;;;;;5011532;28;20099;-63
2024/03/15 09:10:13;;;;;;;21.63;12.82;;;;;;;;;;5029157;28;20111;-63
2024/03/15 09:12:39;;;;;;;21.45;12.68;;;;;;;;;;5029570;28;20462;-64
2024/03/15 09:15:07;;;;;;;19.98;11.95;;;;;;;;;;5026722;28;20041;-63
2024/03/15 09:17:33;;;;;;;18.73;10.93;;;;;;;;;;5027419;28;20428;-64
2024/03/15 09:20:09;;;;;;;18.23;12.05;;;;;;;;;;5028872;28;20041;-66
2024/03/15 09:22:35;;;;;;;22.98;12.15;;;;;;;;;;5028848;28;20140;-63
2024/03/15 09:25:00;;;;;;;19.20;11.88;;;;;;;;;;5030272;28;20120;-63
2024/03/15 09:27:27;;;;;;;17.95;11.77;;;;;;;;;;5030983;28;20033;-64
2024/03/15 09:29:53;;;;;;;18.00;10.80;;;;;;;;;;5030173;28;20569;-64
2024/03/15 09:32:21;;;;;;;19.08;11.05;;;;;;;;;;5030835;28;20041;-64
2024/03/15 09:34:49;;;;;;;20.65;11.50;;;;;;;;;;5025828;28;20044;-63
2024/03/15 09:37:14;;;;;;;22.52;11.38;;;;;;;;;;5030367;28;20048;-63
2024/03/15 09:39:40;;;;;;;16.67;11.25;;;;;;;;;;5030285;28;20030;-64
2024/03/15 09:42:11;;;;;;;17.65;10.88;;;;;;;;;;5029998;28;20782;-62
2024/03/15 09:44:36;;;;;;;;;;;;;;;;;;5026275;28;20065;-63
2024/03/15 09:47:02;;;;;;;20.98;10.75;;;;;;;;;;5029875;28;19983;-62
2024/03/15 09:49:29;;;;;;;19.17;10.68;;;;;;;;;;5029868;28;20064;-63
2024/03/15 09:51:58;;;;;;;17.33;9.88;;;;;;;;;;5029817;28;20043;-70
2024/03/15 09:54:23;;;;;;;19.08;10.90;;;;;;;;;;5028193;28;20037;-65
2024/03/15 09:56:50;;;;;;;22.88;12.50;;;;;;;;;;5029872;28;20036;-65
2024/03/15 09:59:20;;;;;;;19.02;11.25;;;;;;;;;;5027517;28;20069;-66
2024/03/15 10:01:46;;;;;;;20.45;11.88;;;;;;;;;;5029921;28;20068;-64
2024/03/15 10:04:25;;;;;;;15.60;11.25;;;;;;;;;;5030085;28;20045;-66
2024/03/15 10:06:52;;;;;;;;;;;;;;;;;;5033071;28;20538;-67
2024/03/15 10:09:17;;;;;;;22.13;11.30;;;;;;;;;;5025527;28;20000;-66
2024/03/15 10:11:43;;;;;;;19.80;11.93;;;;;;;;;;5035914;28;20033;-70
2024/03/15 10:14:09;;;;;;;16.35;10.73;;;;;;;;;;5030438;28;20045;-65
2024/03/15 10:16:37;;;;;;;20.38;11.48;;;;;;;;;;5033129;28;20415;-67
2024/03/15 10:19:04;;;;;;;19.92;11.65;;;;;;;;;;5033345;28;20040;-67
2024/03/15 10:21:29;;;;;;;19.35;12.30;;;;;;;;;;5031063;28;20124;-66
2024/03/15 10:23:55;;;;;;;21.58;12.15;;;;;;;;;;5031983;28;20538;-66
2024/03/15 10:26:21;;;;;;;18.75;11.52;;;;;;;;;;5065116;28;20029;-66
2024/03/15 10:28:47;;;;;;;17.58;11.20;;;;;;;;;;5033791;28;20163;-66
2024/03/15 10:31:12;;;;;;;18.50;11.25;;;;;;;;;;5033190;28;20040;-66
2024/03/15 10:33:38;;;;;;;16.67;11.40;;;;;;;;;;5065380;28;20123;-65
2024/03/15 10:36:04;;;;;;;19.75;11.40;;;;;;;;;;5033327;28;20040;-66
2024/03/15 10:38:29;;;;;;;23.63;12.55;;;;;;;;;;5065309;28;20087;-66
2024/03/15 10:40:59;;;;;;;19.35;12.13;;;;;;;;;;5031835;28;20511;-65
2024/03/15 10:43:25;;;;;;;19.90;11.90;;;;;;;;;;5032980;28;20143;-63
2024/03/15 10:45:54;;;;;;;22.23;12.10;;;;;;;;;;5015596;28;20025;-65
2024/03/15 10:48:19;;;;;;;18.33;11.45;;;;;;;;;;5032887;28;20506;-64
2024/03/15 10:50:46;;;;;;;23.52;12.00;;;;;;;;;;5031756;28;20124;-66
2024/03/15 10:53:15;;;;;;;20.85;11.80;;;;;;;;;;5031540;28;20091;-65
2024/03/15 10:55:42;;;;;;;18.33;11.25;;;;;;;;;;5032865;28;20048;-66
2024/03/15 10:58:08;;;;;;;18.70;11.50;;;;;;;;;;5032720;28;20039;-65
2024/03/15 11:00:35;;;;;;;16.83;10.68;;;;;;;;;;5015250;28;20044;-65
2024/03/15 11:03:12;;;;;;;16.90;10.60;;;;;;;;;;5032775;28;20045;-64
2024/03/15 11:05:38;;;;;;;23.02;10.85;;;;;;;;;;5032739;28;20034;-66
2024/03/15 11:08:08;;;;;;;15.52;10.38;;;;;;;;;;5014879;28;20453;-65
2024/03/15 11:10:36;;;;;;;15.18;10.23;;;;;;;;;;5032655;28;20045;-65
2024/03/15 11:13:05;;;;;;;17.75;10.65;;;;;;;;;;5032480;28;20048;-65
2024/03/15 11:15:37;;;;;;;17.15;10.15;;;;;;;;;;5032607;28;20491;-66
2024/03/15 11:18:03;;;;;;;15.55;10.15;;;;;;;;;;5032497;28;20037;-65
2024/03/15 11:20:45;;;;;;;17.30;10.60;;;;;;;;;;5030538;28;20499;-67
2024/03/15 11:23:11;;;;;;;16.80;10.15;;;;;;;;;;5032128;28;20049;-66
2024/03/15 11:25:38;;;;;;;15.77;9.45;;;;;;;;;;5032560;28;20028;-66
2024/03/15 11:28:04;;;;;;;16.23;10.70;;;;;;;;;;5030983;28;20045;-66
2024/03/15 11:30:30;;;;;;;18.95;10.60;;;;;;;;;;5032034;28;20039;-65
2024/03/15 11:32:56;;;;;;;16.02;10.48;;;;;;;;;;5032349;28;20041;-65
2024/03/15 11:35:25;;;;;;;18.13;11.00;;;;;;;;;;5030732;28;20047;-63
2024/03/15 11:37:55;;;;;;;18.65;11.10;;;;;;;;;;5030901;28;20123;-68
2024/03/15 11:40:26;;;;;;;21.70;10.60;;;;;;;;;;5032211;28;20041;-65
2024/03/15 11:42:52;;;;;;;19.75;12.10;;;;;;;;;;5031955;28;20135;-64
2024/03/15 11:45:18;;;;;;;20.05;11.25;;;;;;;;;;5032067;28;20163;-62
2024/03/15 11:47:44;;;;;;;19.73;11.90;;;;;;;;;;5064129;28;20040;-66
2024/03/15 11:50:13;;;;;;;18.42;11.90;;;;;;;;;;5031275;28;20042;-64
2024/03/15 11:52:40;;;;;;;20.20;12.80;;;;;;;;;;5030622;28;20041;-66
2024/03/15 11:55:08;;;;;;;18.25;11.95;;;;;;;;;;5030650;28;20053;-65
2024/03/15 11:57:35;;;;;;;19.77;11.90;;;;;;;;;;5026892;28;20075;-64
2024/03/15 12:00:12;;;;;;;20.13;11.50;;;;;;;;;;5018083;28;20044;-65
2024/03/15 12:02:38;;;;;;;21.38;12.10;;;;;;;;;;5031523;28;20072;-65
2024/03/15 12:05:11;;;;;;;20.15;11.93;;;;;;;;;;5030010;28;20041;-66
2024/03/15 12:07:36;;;;;;;21.73;11.50;;;;;;;;;;5031826;28;20037;-66
2024/03/15 12:10:03;;;;;;;18.13;12.05;;;;;;;;;;5031766;28;20476;-64
2024/03/15 12:12:29;;;;;;;19.83;11.27;;;;;;;;;;5030936;28;20056;-66
2024/03/15 12:14:55;;;;;;;19.70;12.75;;;;;;;;;;5031682;28;20404;-67
2024/03/15 12:17:22;;;;;;;19.83;12.65;;;;;;;;;;5030235;28;20052;-68
2024/03/15 12:19:49;;;;;;;21.85;11.80;;;;;;;;;;5031788;28;20053;-68
2024/03/15 12:22:15;;;;;;;22.23;12.10;;;;;;;;;;5029416;28;20052;-67
2024/03/15 12:24:41;;;;;;;24.48;12.77;;;;;;;;;;5029883;28;20069;-67
2024/03/15 12:27:09;;;;;;;24.90;12.68;;;;;;;;;;5030750;28;20057;-67
2024/03/15 12:29:35;;;;;;;17.98;11.10;;;;;;;;;;5031360;28;20038;-69
2024/03/15 12:32:00;;;;;;;24.15;12.63;;;;;;;;;;5062351;28;20577;-67
2024/03/15 12:34:26;;;;;;;25.90;12.60;;;;;;;;;;5031031;28;20392;-67
2024/03/15 12:36:52;;;;;;;19.83;12.18;;;;;;;;;;5031018;28;20037;-67
2024/03/15 12:39:17;;;;;;;23.88;13.13;;;;;;;;;;5031314;28;20064;-67
2024/03/15 12:41:43;;;;;;;25.60;12.63;;;;;;;;;;5030486;28;20519;-67
2024/03/15 12:44:08;;;;;;;23.27;12.75;;;;;;;;;;5029626;28;20038;-67
2024/03/15 12:46:34;;;;;;;21.55;13.10;;;;;;;;;;5029256;28;20076;-67
2024/03/15 12:49:00;;;;;;;23.65;12.60;;;;;;;;;;5029930;28;20407;-66
2024/03/15 12:51:25;;;;;;;20.25;12.70;;;;;;;;;;5030281;28;20029;-67
2024/03/15 12:53:55;;;;;;;23.63;12.68;;;;;;;;;;5030526;28;20056;-67
2024/03/15 12:56:22;;;;;;;18.25;12.55;;;;;;;;;;5012289;28;20022;-67
2024/03/15 12:58:48;;;;;;;25.63;13.70;;;;;;;;;;5029616;28;20044;-66
2024/03/15 13:01:14;;;;;;;20.63;12.93;;;;;;;;;;5030454;28;20037;-68
2024/03/15 13:03:39;;;;;;;22.15;13.48;;;;;;;;;;5030536;28;20056;-67
2024/03/15 13:06:07;;;;;;;24.65;13.32;;;;;;;;;;5030599;28;20495;-66
2024/03/15 13:08:33;;;;;;;21.63;13.70;;;;;;;;;;5030439;28;20041;-66
2024/03/15 13:11:03;;;;;;;26.15;13.75;;;;;;;;;;5029188;28;20028;-67
2024/03/15 13:13:29;;;;;;;30.75;14.55;;;;;;;;;;5029144;28;20124;-66
2024/03/15 13:15:54;;;;;;;26.80;14.95;;;;;;;;;;5013069;28;20041;-65
2024/03/15 13:18:21;;;;;;;23.08;13.38;;;;;;;;;;5028990;28;20495;-65
2024/03/15 13:20:48;;;;;;;27.48;14.85;;;;;;;;;;4995030;28;20509;-66
2024/03/15 13:23:14;;;;;;;26.45;14.98;;;;;;;;;;5028630;28;20451;-66
2024/03/15 13:25:39;;;;;;;27.30;13.98;;;;;;;;;;5030655;28;20083;-67
2024/03/15 13:28:05;;;;;;;27.38;15.32;;;;;;;;;;5030484;28;20483;-66
2024/03/15 13:30:31;;;;;;;25.90;13.88;;;;;;;;;;5030347;28;20492;-67
2024/03/15 13:32:56;;;;;;;29.67;14.25;;;;;;;;;;5030595;28;20127;-66
2024/03/15 13:35:22;;;;;;;29.50;16.38;;;;;;;;;;5029017;28;20037;-66
2024/03/15 13:37:50;;;;;;;26.55;14.38;;;;;;;;;;5062607;28;20172;-66
2024/03/15 13:40:19;;;;;;;27.40;14.02;;;;;;;;;;5029044;28;20049;-66
2024/03/15 13:42:48;;;;;;;26.10;14.30;;;;;;;;;;5030176;28;20087;-67
2024/03/15 13:45:15;;;;;;;26.55;14.38;;;;;;;;;;5033920;28;20407;-66
2024/03/15 13:50:50;;;;;;;33.88;14.73;;;;;;;;;;5031957;28;20034;-66
2024/03/15 13:53:16;;;;;;;32.85;15.70;;;;;;;;;;5033979;28;20036;-66
2024/03/15 13:55:42;;;;;;;24.85;15.07;;;;;;;;;;5032627;28;20033;-65
2024/03/15 13:58:07;;;;;;;33.20;16.50;;;;;;;;;;5033839;28;20034;-67
2024/03/15 14:00:38;;;;;;;29.80;16.25;;;;;;;;;;5033980;28;20112;-66
2024/03/15 14:03:04;;;;;;;31.23;15.15;;;;;;;;;;5033308;28;20067;-65
2024/03/15 14:05:40;;;;;;;30.05;14.95;;;;;;;;;;5033526;28;20037;-66
2024/03/15 14:08:06;;;;;;;28.50;15.18;;;;;;;;;;5033566;28;20446;-64
2024/03/15 14:10:35;;;;;;;26.20;14.27;;;;;;;;;;5032945;28;20083;-65
2024/03/15 14:13:01;;;;;;;28.13;15.63;;;;;;;;;;5033833;28;20080;-66
2024/03/15 14:15:27;;;;;;;28.15;15.20;;;;;;;;;;5033840;28;20037;-66
2024/03/15 14:17:53;;;;;;;25.48;13.50;;;;;;;;;;5032831;28;20120;-67
2024/03/15 14:20:19;;;;;;;27.60;14.38;;;;;;;;;;5032270;28;20037;-67
2024/03/15 14:22:45;;;;;;;28.60;14.02;;;;;;;;;;5032292;28;20585;-63